Time;durP1;ratioP1;P1;durP2;ratioP2;P2;SDS_P1;SDS_P2;PMS_P1;PMS_P2;Temp;Humidity;BMP_temperature;BMP_pressure;BME280_temperature;BME280_humidity;BME280_pressure;Samples;Min_cycle;Max_cycle;Signal;HPM_P1;HPM_P2
2021/01/07 00:01:45;;;;;;;70.47;30.88;;;3.90;73.10;;;;;;4879799;29;20124;-74
2021/01/07 00:04:11;;;;;;;71.78;33.35;;;4.10;73.20;;;;;;4878192;29;20041;-74
2021/01/07 00:06:52;;;;;;;73.18;32.50;;;3.90;72.90;;;;;;4880690;29;20044;-74
2021/01/07 00:09:21;;;;;;;75.10;32.65;;;4.10;73.10;;;;;;4879462;29;20033;-74
2021/01/07 00:11:51;;;;;;;81.85;37.42;;;3.50;72.70;;;;;;4880011;29;20101;-74
2021/01/07 00:14:20;;;;;;;82.95;36.88;;;3.90;72.90;;;;;;4879315;29;20049;-74
2021/01/07 00:16:46;;;;;;;80.28;37.30;;;3.70;72.70;;;;;;4863186;29;20034;-74
2021/01/07 00:19:11;;;;;;;82.93;37.88;;;3.80;72.80;;;;;;4879233;29;20049;-74
2021/01/07 00:21:42;;;;;;;86.18;39.20;;;4.00;72.90;;;;;;4879674;29;20119;-74
2021/01/07 00:24:08;;;;;;;81.18;37.63;;;3.70;72.80;;;;;;4879397;29;20093;-74
2021/01/07 00:26:37;;;;;;;78.15;35.50;;;3.60;72.70;;;;;;4878185;29;20033;-74
2021/01/07 00:29:21;;;;;;;75.68;34.33;;;3.60;72.70;;;;;;4879273;29;20099;-74
2021/01/07 00:31:48;;;;;;;71.45;30.45;;;3.10;72.80;;;;;;4879566;29;20037;-74
2021/01/07 00:38:41;;;;;;;77.63;32.50;;;3.30;72.60;;;;;;4844508;29;20538;-74
2021/01/07 00:41:55;;;;;;;64.72;29.02;;;3.30;72.60;;;;;;4844023;29;20522;-74
2021/01/07 00:44:59;;;;;;;68.55;30.10;;;3.20;72.80;;;;;;4844230;29;20101;-74
2021/01/07 00:47:33;;;;;;;68.70;29.23;;;3.20;73.00;;;;;;4843523;29;20179;-74
2021/01/07 00:50:18;;;;;;;71.35;31.30;;;3.00;72.90;;;;;;4843564;29;20038;-74
2021/01/07 00:52:44;;;;;;;81.90;37.35;;;3.40;73.30;;;;;;4843420;29;20064;-74
2021/01/07 00:55:12;;;;;;;79.15;34.70;;;3.20;73.20;;;;;;4843094;29;20533;-74
2021/01/07 00:57:38;;;;;;;77.85;33.22;;;3.30;73.10;;;;;;4827759;29;20037;-74
2021/01/07 01:00:09;;;;;;;67.22;29.92;;;2.60;72.70;;;;;;4843293;29;20049;-74
2021/01/07 01:02:35;;;;;;;69.68;31.45;;;3.30;73.10;;;;;;4843020;29;20602;-74
2021/01/07 01:05:02;;;;;;;69.40;28.60;;;3.50;73.40;;;;;;4843025;29;20041;-74
2021/01/07 01:07:28;;;;;;;69.75;29.83;;;3.20;73.10;;;;;;4851376;29;20123;-74
2021/01/07 01:09:54;;;;;;;73.13;30.02;;;3.20;73.00;;;;;;4883050;29;20164;-74
2021/01/07 01:12:20;;;;;;;69.90;30.42;;;3.30;73.30;;;;;;4882595;29;20091;-74
2021/01/07 01:14:46;;;;;;;71.60;30.33;;;3.10;73.30;;;;;;4883077;29;20052;-74
2021/01/07 01:17:12;;;;;;;66.55;28.90;;;3.00;73.30;;;;;;4882625;29;20521;-74
2021/01/07 01:19:38;;;;;;;63.40;28.20;;;3.20;73.20;;;;;;4882357;29;20037;-74
2021/01/07 01:22:04;;;;;;;60.08;26.85;;;3.10;73.00;;;;;;4881175;29;20033;-74
2021/01/07 01:24:30;;;;;;;66.50;29.63;;;2.80;72.90;;;;;;4882318;29;20478;-74
2021/01/07 01:26:59;;;;;;;66.75;27.95;;;3.00;73.10;;;;;;4882923;29;20037;-74
2021/01/07 01:29:26;;;;;;;67.07;29.25;;;3.00;73.10;;;;;;4882626;29;20128;-74
2021/01/07 01:31:52;;;;;;;67.00;29.70;;;3.20;73.30;;;;;;4882788;29;20052;-74
2021/01/07 01:34:22;;;;;;;64.30;28.70;;;3.40;73.40;;;;;;4881881;29;20079;-74
2021/01/07 01:36:49;;;;;;;69.47;30.00;;;2.80;73.00;;;;;;4881352;29;20127;-74
2021/01/07 01:39:15;;;;;;;70.38;30.65;;;3.10;73.30;;;;;;4881262;29;20135;-74
2021/01/07 01:41:48;;;;;;;76.55;31.10;;;3.20;73.40;;;;;;4882471;29;20509;-74
2021/01/07 01:44:15;;;;;;;67.10;29.60;;;3.40;73.60;;;;;;4881989;29;20037;-74
2021/01/07 01:46:41;;;;;;;71.38;30.27;;;3.00;73.30;;;;;;4881538;29;20033;-74
2021/01/07 01:49:09;;;;;;;69.15;29.15;;;3.30;73.50;;;;;;4882165;29;20109;-74
2021/01/07 01:51:36;;;;;;;63.50;27.75;;;3.20;73.30;;;;;;4882034;29;20120;-74
2021/01/07 01:54:02;;;;;;;65.88;28.15;;;3.30;73.40;;;;;;4882307;29;20359;-74
2021/01/07 01:56:28;;;;;;;64.88;27.27;;;3.20;73.40;;;;;;4881868;29;20040;-74
2021/01/07 01:58:55;;;;;;;65.50;27.75;;;3.10;73.50;;;;;;4881654;29;20585;-74
2021/01/07 02:01:21;;;;;;;66.45;28.60;;;3.10;73.40;;;;;;4882082;29;20029;-74
2021/01/07 02:03:51;;;;;;;70.97;29.27;;;3.10;73.50;;;;;;4881656;29;20240;-74
2021/01/07 02:06:20;;;;;;;68.35;29.08;;;3.30;73.60;;;;;;4882582;29;20116;-74
2021/01/07 02:08:47;;;;;;;63.00;27.75;;;2.80;73.30;;;;;;4881574;29;20040;-74
2021/01/07 02:11:16;;;;;;;57.60;25.13;;;2.90;73.20;;;;;;4881643;29;20072;-74
2021/01/07 02:13:49;;;;;;;57.97;25.40;;;2.70;73.00;;;;;;4881549;29;20088;-74
2021/01/07 02:16:24;;;;;;;57.75;25.27;;;2.50;72.90;;;;;;4882025;29;20032;-74
2021/01/07 02:18:57;;;;;;;54.80;23.92;;;2.60;73.00;;;;;;4864747;29;20037;-74
2021/01/07 02:21:23;;;;;;;56.28;24.13;;;3.00;73.20;;;;;;4882206;29;20044;-74
2021/01/07 02:23:55;;;;;;;58.13;25.33;;;2.70;73.40;;;;;;4865066;29;20049;-74
2021/01/07 02:26:22;;;;;;;63.03;27.23;;;2.70;73.40;;;;;;4881237;29;20490;-74
2021/01/07 02:28:51;;;;;;;59.50;26.25;;;2.70;73.50;;;;;;4881412;29;20248;-74
2021/01/07 02:31:18;;;;;;;66.18;26.95;;;2.80;73.70;;;;;;4881575;29;20044;-74
2021/01/07 02:33:44;;;;;;;66.15;26.23;;;2.90;73.70;;;;;;4881116;29;20052;-74
2021/01/07 02:36:11;;;;;;;63.33;25.88;;;2.70;73.40;;;;;;4881509;29;20113;-74
2021/01/07 02:38:37;;;;;;;60.70;25.38;;;2.50;73.20;;;;;;4881324;29;20040;-74
2021/01/07 02:41:05;;;;;;;58.60;24.15;;;2.60;73.20;;;;;;4881201;29;20504;-74
2021/01/07 02:43:31;;;;;;;53.70;23.80;;;2.40;73.20;;;;;;4879714;29;20089;-74
2021/01/07 02:45:57;;;;;;;56.90;25.00;;;2.60;73.30;;;;;;4880770;29;20045;-74
2021/01/07 02:48:23;;;;;;;53.13;25.35;;;2.30;73.00;;;;;;4880881;29;20473;-74
2021/01/07 02:50:49;;;;;;;56.38;25.60;;;2.40;73.00;;;;;;4880773;29;20112;-74
2021/01/07 02:53:15;;;;;;;61.10;27.30;;;2.40;72.90;;;;;;4880806;29;20040;-74
2021/01/07 02:55:41;;;;;;;64.30;29.17;;;2.50;72.90;;;;;;4881165;29;20036;-74
2021/01/07 02:58:06;;;;;;;62.95;28.52;;;2.40;72.90;;;;;;4880133;29;20049;-74
2021/01/07 03:00:32;;;;;;;86.43;29.33;;;2.30;72.80;;;;;;4879353;29;20041;-74
2021/01/07 03:02:58;;;;;;;72.35;28.17;;;2.30;72.80;;;;;;4880142;29;20427;-74
2021/01/07 03:05:24;;;;;;;54.45;25.38;;;1.90;72.70;;;;;;4880684;29;20037;-74
2021/01/07 03:07:50;;;;;;;110.13;26.48;;;1.80;72.80;;;;;;4880788;29;20037;-74
2021/01/07 03:10:16;;;;;;;77.82;28.60;;;2.00;73.00;;;;;;4880553;29;20120;-74
2021/01/07 03:12:42;;;;;;;65.00;26.25;;;2.20;73.00;;;;;;4880679;29;20041;-74
2021/01/07 03:15:08;;;;;;;65.03;28.02;;;2.00;72.80;;;;;;4880469;29;20517;-74
2021/01/07 03:17:34;;;;;;;55.38;25.27;;;1.90;72.80;;;;;;4880701;29;20088;-74
2021/01/07 03:20:00;;;;;;;52.53;24.35;;;1.70;72.80;;;;;;4879800;29;20511;-74
2021/01/07 03:22:26;;;;;;;56.53;25.17;;;2.00;73.10;;;;;;4879378;29;20045;-74
2021/01/07 03:24:52;;;;;;;52.25;23.17;;;1.90;73.10;;;;;;4880407;29;20555;-74
2021/01/07 03:27:18;;;;;;;56.08;24.30;;;1.80;73.10;;;;;;4879378;29;20045;-74
2021/01/07 03:29:44;;;;;;;54.63;24.55;;;2.20;73.20;;;;;;4880183;29;20033;-74
2021/01/07 03:32:09;;;;;;;49.97;23.08;;;1.80;72.90;;;;;;4880202;29;20124;-74
2021/01/07 03:41:19;;;;;;;52.00;22.73;;;1.70;73.00;;;;;;4880461;29;20032;-74
2021/01/07 03:43:45;;;;;;;48.03;22.35;;;2.00;73.40;;;;;;4879803;29;20045;-74
2021/01/07 03:46:11;;;;;;;42.90;21.63;;;1.70;72.90;;;;;;4880436;29;20124;-74
2021/01/07 03:48:36;;;;;;;47.53;21.05;;;2.00;73.40;;;;;;4879972;29;20037;-74
2021/01/07 03:51:02;;;;;;;41.70;20.92;;;1.90;72.90;;;;;;4880344;29;20048;-74
2021/01/07 03:53:28;;;;;;;42.85;20.48;;;2.20;73.20;;;;;;4863070;29;20041;-74
2021/01/07 03:55:54;;;;;;;38.33;18.65;;;1.70;73.00;;;;;;4879624;29;20048;-74
2021/01/07 03:58:20;;;;;;;40.55;19.77;;;1.90;72.90;;;;;;4879641;29;20433;-74
2021/01/07 04:00:45;;;;;;;47.38;21.90;;;1.70;72.90;;;;;;4878645;29;20102;-74
2021/01/07 04:03:11;;;;;;;49.45;23.02;;;1.70;73.10;;;;;;4878362;29;20199;-74
2021/01/07 04:06:06;;;;;;;62.75;27.38;;;1.90;73.10;;;;;;4879710;29;20048;-74
2021/01/07 04:18:38;;;;;;;36.15;16.85;;;2.00;72.50;;;;;;4879447;29;20028;-74
2021/01/07 04:21:10;;;;;;;30.77;16.02;;;1.90;72.60;;;;;;4879049;29;20037;-74
2021/01/07 04:23:35;;;;;;;35.03;18.05;;;1.80;72.70;;;;;;4879381;29;20043;-74
2021/01/07 04:26:10;;;;;;;29.55;16.48;;;1.50;72.50;;;;;;4879490;29;20033;-74
2021/01/07 04:38:42;;;;;;;32.78;17.25;;;1.30;72.10;;;;;;4879157;29;20044;-74
2021/01/07 04:41:08;;;;;;;29.60;16.73;;;1.30;72.40;;;;;;4879261;29;20029;-74
2021/01/07 04:43:34;;;;;;;29.92;16.50;;;1.30;72.20;;;;;;4878882;29;20045;-74
2021/01/07 04:46:00;;;;;;;28.95;16.48;;;1.70;72.40;;;;;;4878996;29;20403;-74
2021/01/07 04:48:26;;;;;;;28.77;15.70;;;1.30;72.20;;;;;;4878778;29;20049;-74
2021/01/07 04:50:52;;;;;;;27.25;15.48;;;1.40;72.50;;;;;;4878767;29;20033;-74
2021/01/07 04:53:18;;;;;;;30.05;16.83;;;1.20;72.30;;;;;;4879101;29;20389;-74
2021/01/07 04:55:44;;;;;;;31.05;16.40;;;1.30;72.30;;;;;;4878172;29;20037;-74
2021/01/07 04:58:09;;;;;;;31.25;17.00;;;1.10;72.30;;;;;;4878801;29;20072;-74
2021/01/07 05:00:37;;;;;;;42.88;19.48;;;1.20;72.40;;;;;;4879620;29;20548;-74
2021/01/07 05:03:03;;;;;;;33.83;17.05;;;1.30;72.30;;;;;;4877770;29;20386;-74
2021/01/07 05:05:33;;;;;;;39.60;18.58;;;1.30;72.70;;;;;;4878611;29;20044;-74
2021/01/07 05:08:03;;;;;;;40.03;19.05;;;1.30;72.90;;;;;;4878685;29;20041;-74
2021/01/07 05:10:29;;;;;;;45.20;21.17;;;1.40;72.90;;;;;;4879104;29;20088;-74
2021/01/07 05:13:09;;;;;;;38.15;19.35;;;1.60;73.10;;;;;;4879272;29;20490;-74
2021/01/07 05:15:47;;;;;;;43.90;20.52;;;1.80;73.10;;;;;;4879941;29;20052;-74
2021/01/07 05:18:57;;;;;;;48.97;22.42;;;1.80;73.10;;;;;;4878481;29;20053;-74
2021/01/07 05:28:47;;;;;;;122.97;24.83;;;1.80;73.40;;;;;;4882897;29;20028;-74
2021/01/07 05:51:26;;;;;;;52.42;23.17;;;1.90;73.70;;;;;;4882368;29;20032;-74
2021/01/07 05:53:55;;;;;;;52.45;23.40;;;1.70;73.40;;;;;;4882252;29;20060;-74
2021/01/07 05:56:24;;;;;;;105.38;27.17;;;1.70;73.30;;;;;;4865969;29;20139;-74
2021/01/07 05:58:58;;;;;;;71.88;25.27;;;1.80;73.30;;;;;;4861938;29;20085;-74
2021/01/07 06:04:57;;;;;;;60.47;23.25;;;1.60;72.90;;;;;;4788398;30;20052;-75
2021/01/07 06:07:27;;;;;;;74.40;24.55;;;1.70;72.80;;;;;;4787607;30;20039;-74
2021/01/07 06:15:13;;;;;;;71.45;24.05;;;1.70;72.80;;;;;;5698385;23;20460;-70
2021/01/07 06:17:46;;;;;;;54.72;22.83;;;1.70;72.70;;;;;;4912035;29;20036;-71
2021/01/07 06:20:19;;;;;;;74.72;23.73;;;1.30;72.50;;;;;;4899230;29;20053;-68
2021/01/07 06:22:52;;;;;;;58.80;22.95;;;1.40;72.60;;;;;;4900025;29;20559;-71
2021/01/07 06:25:23;;;;;;;51.35;21.70;;;1.10;72.40;;;;;;4914944;29;20135;-71
2021/01/07 06:27:53;;;;;;;46.97;21.63;;;1.60;72.70;;;;;;4919232;29;20040;-70
2021/01/07 06:30:18;;;;;;;48.38;21.25;;;1.20;72.50;;;;;;4919117;29;20044;-70
2021/01/07 06:32:47;;;;;;;54.55;22.13;;;1.20;72.40;;;;;;4918461;29;20479;-70
2021/01/07 06:35:14;;;;;;;47.95;20.77;;;1.30;72.40;;;;;;4918458;29;20058;-71
2021/01/07 06:37:46;;;;;;;44.28;20.50;;;1.30;72.40;;;;;;4918453;29;20036;-71
2021/01/07 06:40:14;;;;;;;49.03;20.85;;;1.50;72.50;;;;;;4918105;29;20063;-70
2021/01/07 06:42:48;;;;;;;45.00;20.23;;;1.40;72.50;;;;;;4918449;29;20040;-70
2021/01/07 06:45:14;;;;;;;46.30;20.97;;;1.40;72.50;;;;;;4918685;29;20047;-71
2021/01/07 06:51:13;;;;;;;46.33;20.00;;;1.60;72.70;;;;;;4860173;29;20518;-70
2021/01/07 06:57:15;;;;;;;49.40;21.60;;;1.40;72.60;;;;;;4860126;29;20607;-71
2021/01/07 06:59:57;;;;;;;54.08;23.50;;;2.00;73.20;;;;;;4845234;29;20437;-70
2021/01/07 07:02:24;;;;;;;50.22;22.73;;;1.90;73.20;;;;;;4859575;29;20525;-71
2021/01/07 07:05:17;;;;;;;46.17;20.70;;;2.00;73.70;;;;;;4860161;29;20045;-71
2021/01/07 07:15:05;;;;;;;45.65;21.50;;;2.40;73.30;;;;;;4857013;29;20048;-71
2021/01/07 07:24:35;;;;;;;46.40;21.58;;;2.30;72.90;;;;;;4870471;29;20488;-71
2021/01/07 07:27:44;;;;;;;41.10;20.83;;;2.40;73.00;;;;;;4863718;29;20049;-69
2021/01/07 07:31:00;;;;;;;44.10;20.77;;;2.40;72.90;;;;;;4876271;29;20438;-69
2021/01/07 07:37:33;;;;;;;38.38;18.52;;;2.60;73.00;;;;;;4815542;29;19913;-69
2021/01/07 08:04:05;;;;;;;36.38;19.55;;;2.70;72.90;;;;;;4820686;29;20045;-69
2021/01/07 08:24:41;;;;;;;49.22;22.88;;;2.70;72.50;;;;;;4879937;29;20148;-69
2021/01/07 08:27:21;;;;;;;45.63;22.95;;;2.70;72.70;;;;;;4879437;29;20083;-69
2021/01/07 08:29:53;;;;;;;43.00;22.95;;;2.60;72.70;;;;;;4879197;29;20041;-69
2021/01/07 08:32:21;;;;;;;45.45;21.63;;;2.70;72.70;;;;;;4879584;29;20040;-69
2021/01/07 08:35:34;;;;;;;44.33;22.67;;;2.90;72.70;;;;;;4879746;29;20429;-69
2021/01/07 08:37:59;;;;;;;41.65;21.58;;;2.80;72.50;;;;;;4879277;29;20048;-69
2021/01/07 08:40:26;;;;;;;40.10;22.08;;;3.10;73.00;;;;;;4879476;29;20033;-69
2021/01/07 08:42:54;;;;;;;46.78;23.55;;;3.20;72.90;;;;;;4879095;29;20069;-69
2021/01/07 08:45:28;;;;;;;44.55;22.88;;;3.20;72.70;;;;;;4879467;29;20123;-69
2021/01/07 08:48:20;;;;;;;49.17;23.80;;;3.30;72.70;;;;;;4879104;29;20048;-69
2021/01/07 08:50:50;;;;;;;47.70;24.17;;;3.20;72.40;;;;;;4879756;29;20057;-69
2021/01/07 08:53:16;;;;;;;46.80;24.83;;;3.30;72.50;;;;;;4879367;29;20045;-69
2021/01/07 08:55:51;;;;;;;46.25;24.55;;;3.70;72.60;;;;;;4880555;29;20049;-69
2021/01/07 08:58:25;;;;;;;49.95;25.85;;;3.30;72.30;;;;;;4882832;29;20052;-69
2021/01/07 09:00:54;;;;;;;45.15;24.67;;;3.50;72.30;;;;;;4866172;29;20045;-69
2021/01/07 09:03:42;;;;;;;40.97;22.15;;;3.60;72.30;;;;;;4882939;29;20045;-69
2021/01/07 09:06:09;;;;;;;38.40;20.50;;;3.50;72.10;;;;;;4866106;29;20159;-69
2021/01/07 09:08:35;;;;;;;39.38;21.20;;;3.20;72.10;;;;;;4882357;29;20037;-69
2021/01/07 09:11:07;;;;;;;43.85;21.48;;;3.80;72.30;;;;;;4882829;29;20394;-69
2021/01/07 09:13:33;;;;;;;41.97;22.08;;;3.80;72.30;;;;;;4882788;29;20548;-69
2021/01/07 09:16:20;;;;;;;41.67;22.10;;;3.80;72.30;;;;;;4882888;29;20037;-69
2021/01/07 09:18:46;;;;;;;119.68;51.90;;;4.10;72.40;;;;;;4882309;29;20100;-69
2021/01/07 09:21:15;;;;;;;115.53;51.67;;;4.00;72.80;;;;;;4882805;29;20051;-69
2021/01/07 09:23:42;;;;;;;87.18;39.90;;;3.90;72.20;;;;;;4866114;29;20049;-69
2021/01/07 09:26:08;;;;;;;62.75;30.30;;;3.90;72.10;;;;;;4882407;29;20401;-70
2021/01/07 09:28:36;;;;;;;61.05;30.67;;;4.40;72.30;;;;;;4882832;29;20052;-70
2021/01/07 09:31:02;;;;;;;72.53;34.35;;;4.40;72.30;;;;;;4882621;29;20045;-70
2021/01/07 09:33:28;;;;;;;55.15;27.17;;;4.50;72.30;;;;;;4882558;29;20055;-70
2021/01/07 09:35:54;;;;;;;58.15;30.77;;;4.70;72.30;;;;;;4882700;29;20041;-70
2021/01/07 09:38:19;;;;;;;61.33;29.85;;;4.60;72.00;;;;;;4882322;29;20457;-70
2021/01/07 09:40:45;;;;;;;61.67;31.45;;;4.30;71.90;;;;;;4882337;29;20064;-70
2021/01/07 09:43:11;;;;;;;58.45;30.88;;;4.70;72.20;;;;;;4882272;29;20045;-70
2021/01/07 09:45:37;;;;;;;56.95;30.02;;;4.80;72.10;;;;;;4882358;29;20060;-70
2021/01/07 09:48:03;;;;;;;59.65;30.67;;;4.90;72.20;;;;;;4882192;29;20041;-70
2021/01/07 09:50:28;;;;;;;58.50;30.10;;;5.00;72.10;;;;;;4881917;29;20040;-70
2021/01/07 09:52:54;;;;;;;48.15;25.80;;;5.10;72.00;;;;;;4882292;29;20055;-70
2021/01/07 09:55:23;;;;;;;53.70;28.70;;;5.20;71.70;;;;;;4882201;29;20057;-70
2021/01/07 09:57:49;;;;;;;57.67;28.70;;;5.10;71.70;;;;;;4881863;29;20041;-70
2021/01/07 10:00:16;;;;;;;54.70;27.55;;;5.30;71.80;;;;;;4881606;29;20136;-70
2021/01/07 10:02:42;;;;;;;49.28;26.65;;;5.70;71.90;;;;;;4881842;29;20041;-70
2021/01/07 10:05:08;;;;;;;57.17;27.30;;;5.70;71.60;;;;;;4881803;29;20048;-70
2021/01/07 10:07:34;;;;;;;52.55;28.20;;;5.80;71.50;;;;;;4880849;29;20047;-70
2021/01/07 10:10:00;;;;;;;49.35;27.75;;;5.90;71.30;;;;;;4881850;29;20116;-70
2021/01/07 10:12:25;;;;;;;53.20;27.60;;;6.00;71.10;;;;;;4881847;29;20093;-70
2021/01/07 10:14:51;;;;;;;51.97;29.80;;;6.30;71.00;;;;;;4881883;29;20056;-70
2021/01/07 10:17:19;;;;;;;59.10;31.10;;;6.30;70.70;;;;;;4881610;29;20135;-70
2021/01/07 10:19:44;;;;;;;56.00;28.92;;;6.30;70.60;;;;;;4881543;29;20049;-70
2021/01/07 10:22:14;;;;;;;53.33;28.40;;;6.40;70.50;;;;;;4881528;29;20044;-70
2021/01/07 10:24:45;;;;;;;59.28;32.75;;;6.50;70.30;;;;;;4881197;29;20045;-70
2021/01/07 10:27:15;;;;;;;58.17;34.10;;;6.50;70.20;;;;;;4881191;29;20037;-70
2021/01/07 10:29:43;;;;;;;57.35;34.17;;;6.70;70.20;;;;;;4881001;29;20492;-70
2021/01/07 10:32:16;;;;;;;58.22;33.50;;;6.90;70.10;;;;;;4881242;29;20041;-70
2021/01/07 10:34:43;;;;;;;54.72;32.40;;;7.20;69.70;;;;;;4881168;29;20497;-70
2021/01/07 10:37:11;;;;;;;52.10;29.23;;;7.30;69.40;;;;;;4881273;29;20045;-70
2021/01/07 10:39:40;;;;;;;52.65;29.17;;;7.20;68.90;;;;;;4864648;29;20501;-70
2021/01/07 10:42:08;;;;;;;55.72;30.10;;;7.30;69.00;;;;;;4880692;29;20037;-71
2021/01/07 10:44:36;;;;;;;59.05;31.00;;;7.30;68.80;;;;;;4880740;29;20493;-70
2021/01/07 10:47:03;;;;;;;54.78;29.50;;;7.30;68.50;;;;;;4881098;29;20068;-70
2021/01/07 10:49:31;;;;;;;58.63;29.83;;;7.10;68.60;;;;;;4880548;29;20386;-70
2021/01/07 10:52:15;;;;;;;55.35;28.90;;;7.00;68.60;;;;;;4880501;29;20128;-71
2021/01/07 10:55:02;;;;;;;52.67;28.52;;;7.10;68.50;;;;;;4880729;29;20064;-70
2021/01/07 10:58:07;;;;;;;51.35;27.13;;;7.10;68.50;;;;;;4880885;29;20048;-70
2021/01/07 11:00:57;;;;;;;49.78;28.13;;;7.20;68.70;;;;;;4852014;29;20075;-71
2021/01/07 11:03:41;;;;;;;50.97;28.33;;;7.20;68.60;;;;;;4880673;29;20045;-70
2021/01/07 11:06:11;;;;;;;48.45;27.55;;;7.30;68.70;;;;;;4876302;29;20097;-70
2021/01/07 11:08:52;;;;;;;52.65;28.42;;;7.20;68.80;;;;;;4894006;29;20055;-70
2021/01/07 11:15:11;;;;;;;46.92;24.50;;;7.20;68.80;;;;;;4899215;29;20082;-70
2021/01/07 11:17:46;;;;;;;47.03;25.45;;;7.30;69.00;;;;;;4898174;29;20048;-70
2021/01/07 11:20:14;;;;;;;47.85;24.67;;;7.10;69.20;;;;;;4907495;29;20060;-70
2021/01/07 11:22:41;;;;;;;46.30;24.70;;;7.30;69.40;;;;;;4918189;29;20099;-70
2021/01/07 11:25:11;;;;;;;49.40;26.63;;;7.00;69.50;;;;;;4918480;29;20046;-71
2021/01/07 11:27:37;;;;;;;45.88;26.58;;;7.20;69.80;;;;;;4917886;29;20075;-70
2021/01/07 11:30:05;;;;;;;46.83;27.02;;;7.10;69.70;;;;;;4917971;29;20138;-70
2021/01/07 11:32:35;;;;;;;48.42;27.88;;;7.00;69.70;;;;;;4917533;29;20040;-70
2021/01/07 11:35:01;;;;;;;52.63;29.95;;;7.10;69.90;;;;;;4892858;29;20646;-70
2021/01/07 11:37:35;;;;;;;51.80;29.48;;;7.10;70.00;;;;;;4911002;29;20056;-70
2021/01/07 11:40:07;;;;;;;46.70;29.05;;;7.20;70.00;;;;;;4917757;29;20040;-70
2021/01/07 11:42:36;;;;;;;52.20;31.52;;;7.20;70.10;;;;;;4917148;29;20083;-70
2021/01/07 11:45:16;;;;;;;51.72;30.50;;;7.10;70.10;;;;;;4917292;29;20048;-70
2021/01/07 11:47:54;;;;;;;58.35;31.80;;;7.40;70.20;;;;;;4917202;29;20055;-70
2021/01/07 11:50:29;;;;;;;48.05;28.05;;;7.30;70.40;;;;;;4917188;29;20187;-70
2021/01/07 11:52:55;;;;;;;43.13;24.70;;;7.30;70.50;;;;;;4917891;29;20107;-70
2021/01/07 11:55:22;;;;;;;41.42;23.65;;;7.40;70.60;;;;;;4917078;29;20075;-70
2021/01/07 11:57:50;;;;;;;46.28;24.67;;;7.50;70.70;;;;;;4917166;29;20098;-70
2021/01/07 12:00:17;;;;;;;42.35;22.42;;;7.50;70.70;;;;;;4917048;29;20064;-72
2021/01/07 12:02:44;;;;;;;36.00;21.10;;;7.50;70.80;;;;;;4917047;29;20091;-72
2021/01/07 12:05:17;;;;;;;34.28;19.27;;;7.50;70.90;;;;;;4917137;29;20076;-72
2021/01/07 12:07:55;;;;;;;33.28;18.40;;;8.60;71.40;;;;;;4916652;29;20047;-72
2021/01/07 12:10:23;;;;;;;34.25;18.73;;;7.70;70.90;;;;;;4917404;29;20063;-72
2021/01/07 12:13:07;;;;;;;30.20;17.55;;;8.00;70.90;;;;;;4916691;29;20047;-72
2021/01/07 12:15:36;;;;;;;31.45;17.45;;;7.80;70.60;;;;;;4913270;29;20055;-72
2021/01/07 12:18:03;;;;;;;31.70;17.30;;;7.90;70.50;;;;;;4905037;29;20049;-72
2021/01/07 12:20:34;;;;;;;31.30;17.20;;;8.00;70.50;;;;;;4914070;29;20063;-71
2021/01/07 12:23:02;;;;;;;30.23;16.27;;;7.90;70.40;;;;;;4915801;29;20500;-71
2021/01/07 12:25:28;;;;;;;31.33;16.08;;;8.00;70.30;;;;;;4916446;29;20088;-71
2021/01/07 12:27:54;;;;;;;30.58;16.52;;;8.20;70.30;;;;;;4916004;29;20075;-70
2021/01/07 12:30:20;;;;;;;30.83;16.95;;;7.90;70.10;;;;;;4917692;29;20496;-71
2021/01/07 12:33:14;;;;;;;29.70;16.73;;;8.00;70.00;;;;;;4922383;29;20047;-70
2021/01/07 12:35:50;;;;;;;26.58;14.05;;;8.10;69.80;;;;;;4920320;29;20048;-71
2021/01/07 12:38:35;;;;;;;24.55;14.35;;;8.00;69.70;;;;;;4921575;29;20047;-71
2021/01/07 12:41:10;;;;;;;26.75;14.15;;;8.10;69.90;;;;;;4922040;29;20040;-71
2021/01/07 12:43:41;;;;;;;26.40;13.80;;;8.10;69.60;;;;;;4922597;29;20036;-71
2021/01/07 12:46:10;;;;;;;20.05;11.88;;;8.10;69.50;;;;;;4923022;29;20130;-71
2021/01/07 12:48:38;;;;;;;18.23;10.10;;;8.00;69.30;;;;;;4922518;29;20046;-71
2021/01/07 12:51:04;;;;;;;21.73;12.57;;;7.90;69.10;;;;;;4911314;29;20444;-71
2021/01/07 12:53:31;;;;;;;29.40;15.15;;;8.00;69.10;;;;;;4923039;29;20040;-71
2021/01/07 12:55:57;;;;;;;25.75;13.98;;;8.10;69.10;;;;;;4911826;29;20133;-71
2021/01/07 12:58:26;;;;;;;24.27;13.95;;;8.00;68.90;;;;;;4904255;29;20041;-70
2021/01/07 13:01:00;;;;;;;26.10;14.18;;;8.00;68.80;;;;;;4907903;29;20052;-70
2021/01/07 13:03:59;;;;;;;25.50;14.52;;;8.10;68.70;;;;;;4920317;29;20067;-70
2021/01/07 13:06:48;;;;;;;29.48;16.02;;;8.10;68.70;;;;;;4921836;29;20050;-70
2021/01/07 13:09:16;;;;;;;26.50;14.77;;;8.20;68.90;;;;;;4922292;29;20048;-70
2021/01/07 13:11:44;;;;;;;25.10;14.30;;;8.00;68.60;;;;;;4922682;29;20111;-70
2021/01/07 13:14:10;;;;;;;29.33;17.92;;;8.00;68.40;;;;;;4922394;29;20096;-70
2021/01/07 13:16:36;;;;;;;28.20;15.98;;;8.00;68.50;;;;;;4921894;29;20094;-70
2021/01/07 13:19:02;;;;;;;27.38;14.93;;;7.90;68.40;;;;;;4906971;29;20492;-71
2021/01/07 13:21:28;;;;;;;29.75;15.70;;;7.90;68.30;;;;;;4922464;29;20046;-70
2021/01/07 13:23:55;;;;;;;30.90;17.25;;;7.90;68.40;;;;;;4921725;29;20055;-70
2021/01/07 13:26:21;;;;;;;28.30;16.05;;;7.70;68.30;;;;;;4922112;29;20042;-70
2021/01/07 13:28:47;;;;;;;30.80;16.42;;;7.90;68.50;;;;;;4922261;29;20043;-70
2021/01/07 13:31:16;;;;;;;26.13;14.85;;;7.70;68.30;;;;;;4921415;29;20094;-70
2021/01/07 13:33:46;;;;;;;28.67;14.70;;;7.70;68.30;;;;;;4921654;29;20104;-70
2021/01/07 13:36:12;;;;;;;29.42;15.27;;;7.70;68.30;;;;;;4922121;29;20361;-70
2021/01/07 13:38:39;;;;;;;28.38;15.85;;;7.60;68.20;;;;;;4921350;29;20051;-70
2021/01/07 13:41:06;;;;;;;26.55;14.32;;;7.70;68.20;;;;;;4917488;29;20607;-70
2021/01/07 13:43:38;;;;;;;26.25;13.85;;;7.80;68.20;;;;;;4899689;29;20139;-70
2021/01/07 13:46:07;;;;;;;27.00;15.23;;;7.70;68.10;;;;;;4900716;29;20080;-70
2021/01/07 13:48:35;;;;;;;26.60;15.05;;;7.80;68.10;;;;;;4900851;29;20044;-70
2021/01/07 13:51:04;;;;;;;24.73;13.85;;;7.70;68.00;;;;;;4900637;29;20044;-70
2021/01/07 13:53:32;;;;;;;23.52;13.63;;;8.00;68.10;;;;;;4917255;29;20157;-70
2021/01/07 13:55:58;;;;;;;24.58;14.20;;;7.90;68.10;;;;;;4918928;29;20051;-70
2021/01/07 13:58:25;;;;;;;32.88;20.08;;;8.10;68.10;;;;;;4919473;29;20519;-70
2021/01/07 14:00:54;;;;;;;26.67;14.60;;;8.20;68.10;;;;;;4918952;29;20036;-70
2021/01/07 14:03:21;;;;;;;28.83;15.60;;;8.30;68.10;;;;;;4919280;29;20036;-70
2021/01/07 14:05:49;;;;;;;26.40;15.23;;;8.30;68.00;;;;;;4918991;29;20040;-70
2021/01/07 14:08:26;;;;;;;31.52;19.15;;;8.40;67.90;;;;;;4918813;29;20048;-70
2021/01/07 14:10:53;;;;;;;37.40;22.85;;;8.30;67.50;;;;;;4919376;29;20048;-70
2021/01/07 14:13:20;;;;;;;26.35;15.30;;;8.40;67.50;;;;;;4918904;29;20176;-70
2021/01/07 14:15:47;;;;;;;50.83;31.88;;;8.40;67.40;;;;;;4912064;29;20036;-71
2021/01/07 14:18:13;;;;;;;34.83;20.25;;;8.50;67.50;;;;;;4900260;29;20053;-71
2021/01/07 14:20:40;;;;;;;33.55;17.60;;;8.60;67.40;;;;;;4901841;29;20056;-71
2021/01/07 14:23:10;;;;;;;28.23;15.27;;;8.50;67.40;;;;;;4918545;29;20036;-71
2021/01/07 14:25:39;;;;;;;27.45;14.93;;;8.80;67.60;;;;;;4918439;29;20048;-71
2021/01/07 14:28:16;;;;;;;22.40;12.80;;;8.90;67.50;;;;;;4918149;29;20040;-71
2021/01/07 14:30:43;;;;;;;22.52;12.95;;;8.90;67.50;;;;;;4918055;29;20044;-71
2021/01/07 14:33:13;;;;;;;23.05;14.05;;;9.00;67.60;;;;;;4918048;29;20079;-71
2021/01/07 14:35:39;;;;;;;24.05;13.35;;;9.00;67.40;;;;;;4918090;29;20055;-71
2021/01/07 14:38:10;;;;;;;24.85;14.88;;;8.90;67.20;;;;;;4917906;29;20044;-71
2021/01/07 14:40:36;;;;;;;29.50;16.58;;;8.90;67.20;;;;;;4918773;29;20091;-71
2021/01/07 14:43:02;;;;;;;23.02;12.57;;;8.70;67.00;;;;;;4918364;29;20436;-71
2021/01/07 14:45:30;;;;;;;22.15;13.15;;;8.70;67.00;;;;;;4918412;29;20075;-71
2021/01/07 14:48:00;;;;;;;24.30;13.50;;;8.70;66.90;;;;;;4918282;29;20140;-71
2021/01/07 14:50:29;;;;;;;24.77;13.30;;;8.70;67.00;;;;;;4917989;29;20055;-71
2021/01/07 14:53:12;;;;;;;20.90;11.73;;;8.60;66.90;;;;;;4917871;29;20036;-70
2021/01/07 14:55:38;;;;;;;26.77;14.52;;;8.50;66.60;;;;;;4914611;29;20052;-70
2021/01/07 14:58:19;;;;;;;25.63;14.30;;;8.40;66.70;;;;;;4917733;29;20070;-70
2021/01/07 15:00:53;;;;;;;23.55;12.90;;;8.30;66.60;;;;;;4917644;29;20040;-70
2021/01/07 15:03:41;;;;;;;22.23;12.35;;;8.20;66.50;;;;;;4914721;29;20044;-71
2021/01/07 15:06:19;;;;;;;19.00;11.48;;;8.00;66.40;;;;;;4916202;29;20114;-70
2021/01/07 15:09:05;;;;;;;20.98;12.15;;;7.80;66.40;;;;;;4918041;29;20607;-70
2021/01/07 15:11:41;;;;;;;22.98;12.20;;;7.60;67.00;;;;;;4917299;29;20046;-70